createdAt,value
2019-02-15T00:00:13.258Z,29.40
2019-02-15T00:02:41.714Z,29.20
2019-02-15T00:05:10.178Z,29.07
2019-02-15T00:07:38.711Z,29.33
2019-02-15T00:10:07.519Z,30.27
2019-02-15T00:12:35.986Z,31.37
2019-02-15T00:15:05.444Z,32.87
2019-02-15T00:17:52.056Z,32.17
2019-02-15T00:20:22.268Z,30.20
2019-02-15T00:22:50.933Z,31.13
2019-02-15T00:25:19.392Z,33.50
2019-02-15T00:27:47.937Z,34.20
2019-02-15T00:30:16.477Z,33.10
2019-02-15T00:32:44.940Z,34.40
2019-02-15T00:35:13.468Z,33.47
2019-02-15T00:37:41.985Z,32.17
2019-02-15T00:40:10.412Z,33.67
2019-02-15T00:42:39.378Z,33.23
2019-02-15T00:45:09.584Z,35.07
2019-02-15T00:47:39.681Z,35.80
2019-02-15T00:50:19.098Z,36.13
2019-02-15T00:52:49.268Z,46.10
2019-02-15T00:55:37.575Z,39.60
2019-02-15T00:58:16.598Z,35.63
2019-02-15T01:00:58.767Z,35.70
2019-02-15T01:03:34.821Z,33.97
2019-02-15T01:06:07.401Z,35.77
2019-02-15T01:08:40.307Z,33.43
2019-02-15T01:11:16.156Z,35.57
2019-02-15T01:13:44.666Z,31.60
2019-02-15T01:16:13.204Z,32.33
2019-02-15T01:18:41.765Z,33.80
2019-02-15T01:21:10.224Z,35.27
2019-02-15T01:23:38.685Z,34.07
2019-02-15T01:26:14.593Z,33.97
2019-02-15T01:28:44.718Z,36.30
2019-02-15T01:31:14.865Z,35.93
2019-02-15T01:33:45.006Z,35.90
2019-02-15T01:36:17.881Z,36.83
2019-02-15T01:38:47.976Z,36.97
2019-02-15T01:41:18.097Z,38.13
2019-02-15T01:43:48.653Z,36.67
2019-02-15T01:46:18.757Z,37.60
2019-02-15T01:48:47.222Z,38.17
2019-02-15T01:51:15.771Z,37.43
2019-02-15T01:53:44.242Z,38.63
2019-02-15T01:56:12.706Z,39.17
2019-02-15T01:58:41.220Z,38.73
2019-02-15T02:01:09.888Z,39.63
2019-02-15T02:03:38.360Z,39.93
2019-02-15T02:06:06.971Z,38.90
2019-02-15T02:08:35.699Z,41.37
2019-02-15T02:11:04.256Z,37.93
2019-02-15T02:13:32.747Z,38.90
2019-02-15T02:16:01.296Z,39.57
2019-02-15T02:18:29.834Z,39.07
2019-02-15T02:20:58.361Z,37.57
2019-02-15T02:23:26.956Z,38.77
2019-02-15T02:25:55.435Z,39.27
2019-02-15T02:28:23.929Z,39.13
2019-02-15T02:30:52.390Z,37.03
2019-02-15T02:33:20.866Z,37.43
2019-02-15T02:35:49.382Z,37.60
2019-02-15T02:38:17.849Z,37.90
2019-02-15T02:40:46.313Z,39.30
2019-02-15T02:43:15.019Z,39.37
2019-02-15T02:45:44.136Z,39.97
2019-02-15T02:48:12.599Z,39.77
2019-02-15T02:50:41.138Z,40.50
2019-02-15T02:53:09.601Z,40.50
2019-02-15T02:55:38.143Z,38.97
2019-02-15T02:58:06.676Z,41.20
2019-02-15T03:00:35.262Z,40.17
2019-02-15T03:03:03.689Z,41.30
2019-02-15T03:05:32.338Z,40.30
2019-02-15T03:08:00.900Z,40.17
2019-02-15T03:10:29.363Z,40.90
2019-02-15T03:12:57.999Z,40.03
2019-02-15T03:15:26.476Z,39.03
2019-02-15T03:17:54.925Z,41.67
2019-02-15T03:20:30.762Z,42.10
2019-02-15T03:22:53.753Z,45.50
2019-02-15T03:25:22.213Z,44.23
2019-02-15T03:27:50.757Z,41.97
2019-02-15T03:30:19.301Z,66.80
2019-02-15T03:32:47.766Z,55.07
2019-02-15T03:35:16.307Z,45.37
2019-02-15T03:37:58.675Z,43.97
2019-02-15T03:40:28.845Z,44.90
2019-02-15T03:42:57.306Z,44.07
2019-02-15T03:45:25.844Z,44.83
2019-02-15T03:47:54.394Z,45.03
2019-02-15T03:50:22.863Z,47.20
2019-02-15T03:52:51.344Z,48.37
2019-02-15T03:55:19.867Z,48.17
2019-02-15T03:57:48.474Z,49.40
2019-02-15T04:00:17.010Z,48.80
2019-02-15T04:02:45.603Z,48.13
2019-02-15T04:05:14.076Z,49.43
2019-02-15T04:07:42.562Z,48.37
2019-02-15T04:10:11.179Z,47.47
2019-02-15T04:12:39.641Z,49.67
2019-02-15T04:15:08.852Z,50.83
2019-02-15T04:17:37.383Z,52.97
2019-02-15T04:20:08.484Z,66.87
2019-02-15T04:22:36.953Z,51.57
2019-02-15T04:25:06.408Z,47.27
2019-02-15T04:27:34.941Z,46.20
2019-02-15T04:30:03.588Z,47.63
2019-02-15T04:32:32.183Z,48.53
2019-02-15T04:35:00.683Z,47.60
2019-02-15T04:37:29.264Z,48.00
2019-02-15T04:39:57.781Z,45.47
2019-02-15T04:42:26.246Z,46.20
2019-02-15T04:44:54.732Z,41.90
2019-02-15T04:47:23.283Z,44.53
2019-02-15T04:49:51.845Z,45.30
2019-02-15T04:52:20.324Z,42.27
2019-02-15T04:54:48.940Z,44.30
2019-02-15T04:57:17.400Z,44.53
2019-02-15T04:59:45.907Z,44.13
2019-02-15T05:02:14.442Z,46.60
2019-02-15T05:04:42.963Z,47.03
2019-02-15T05:07:11.422Z,47.03
2019-02-15T05:09:39.957Z,49.50
2019-02-15T05:12:09.423Z,48.40
2019-02-15T05:14:37.889Z,53.17
2019-02-15T05:17:06.425Z,48.90
2019-02-15T05:19:34.917Z,48.20
2019-02-15T05:22:03.378Z,47.43
2019-02-15T05:24:31.899Z,47.37
2019-02-15T05:27:00.364Z,49.07
2019-02-15T05:29:28.833Z,49.40
2019-02-15T05:31:57.352Z,50.47
2019-02-15T05:34:25.821Z,47.23
2019-02-15T05:36:54.303Z,48.43
2019-02-15T05:39:22.828Z,44.33
2019-02-15T05:41:51.501Z,47.20
2019-02-15T05:44:19.975Z,50.67
2019-02-15T05:46:49.507Z,51.43
2019-02-15T05:49:17.978Z,50.40
2019-02-15T05:51:47.540Z,50.40
2019-02-15T05:54:16.636Z,50.27
2019-02-15T05:56:45.120Z,49.17
2019-02-15T05:59:13.635Z,50.10
2019-02-15T06:01:42.161Z,50.60
2019-02-15T06:04:10.622Z,57.53
2019-02-15T06:06:39.102Z,67.63
2019-02-15T06:09:07.634Z,54.20
2019-02-15T06:11:36.100Z,54.33
2019-02-15T06:14:04.574Z,54.53
2019-02-15T06:16:33.102Z,51.83
2019-02-15T06:19:01.577Z,54.30
2019-02-15T06:21:30.048Z,52.07
2019-02-15T06:23:58.568Z,51.33
2019-02-15T06:26:27.050Z,54.27
2019-02-15T06:28:55.579Z,56.13
2019-02-15T06:31:24.095Z,54.03
2019-02-15T06:33:52.567Z,54.40
2019-02-15T06:36:21.034Z,55.33
2019-02-15T06:38:49.551Z,57.17
2019-02-15T06:41:18.086Z,55.63
2019-02-15T06:43:46.621Z,57.37
2019-02-15T06:46:15.151Z,58.93
2019-02-15T06:48:43.629Z,62.27
2019-02-15T06:51:12.122Z,104.20
2019-02-15T06:53:41.194Z,85.77
2019-02-15T06:56:09.668Z,77.00
2019-02-15T06:58:45.428Z,86.83
2019-02-15T07:01:23.793Z,71.87
2019-02-15T07:03:53.909Z,56.57
2019-02-15T07:06:22.372Z,52.90
2019-02-15T07:08:50.900Z,49.87
2019-02-15T07:11:19.386Z,49.17
2019-02-15T07:13:48.046Z,51.57
2019-02-15T07:16:16.685Z,49.53
2019-02-15T07:18:45.147Z,48.10
2019-02-15T07:21:13.682Z,45.65
2019-02-15T07:23:42.211Z,51.20
2019-02-15T07:26:10.677Z,42.97
2019-02-15T07:28:39.156Z,39.63
2019-02-15T07:31:07.714Z,35.70
2019-02-15T07:33:36.162Z,35.83
2019-02-15T07:36:04.615Z,36.13
2019-02-15T07:38:33.152Z,33.30
2019-02-15T07:41:01.619Z,35.10
2019-02-15T07:43:30.195Z,31.90
2019-02-15T07:45:58.813Z,31.47
2019-02-15T07:48:27.286Z,31.43
2019-02-15T07:50:55.748Z,30.80
2019-02-15T07:53:24.274Z,29.67
2019-02-15T07:55:53.037Z,27.43
2019-02-15T07:58:21.504Z,26.63
2019-02-15T08:00:50.011Z,27.37
2019-02-15T08:03:18.514Z,19.80
2019-02-15T08:05:47.048Z,25.40
2019-02-15T08:08:15.606Z,24.60
2019-02-15T08:10:44.073Z,22.77
2019-02-15T08:13:13.530Z,24.30
2019-02-15T08:15:42.116Z,16.83
2019-02-15T08:18:10.672Z,21.57
2019-02-15T08:20:39.141Z,23.30
2019-02-15T08:23:07.682Z,22.70
2019-02-15T08:25:36.223Z,22.90
2019-02-15T08:28:04.849Z,24.00
2019-02-15T08:30:33.409Z,23.17
2019-02-15T08:33:01.914Z,23.53
2019-02-15T08:35:30.376Z,25.10
2019-02-15T08:37:58.884Z,23.43
2019-02-15T08:40:27.358Z,24.23
2019-02-15T08:42:56.809Z,26.03
2019-02-15T08:45:25.401Z,28.33
2019-02-15T08:47:53.860Z,29.60
2019-02-15T08:50:22.321Z,30.40
2019-02-15T08:52:50.924Z,26.67
2019-02-15T08:55:19.451Z,22.37
2019-02-15T08:57:47.940Z,23.43
2019-02-15T09:00:16.508Z,22.27
2019-02-15T09:02:45.034Z,21.53
2019-02-15T09:05:13.659Z,20.17
2019-02-15T09:07:42.176Z,21.37
2019-02-15T09:10:12.476Z,20.27
2019-02-15T09:12:41.072Z,19.90
2019-02-15T09:15:15.481Z,21.03
2019-02-15T09:17:44.008Z,19.60
2019-02-15T09:20:12.913Z,20.27
2019-02-15T09:22:41.510Z,18.83
2019-02-15T09:25:11.192Z,19.27
2019-02-15T09:27:41.370Z,21.03
2019-02-15T09:30:15.030Z,19.00
2019-02-15T09:32:43.532Z,18.87
2019-02-15T09:35:12.545Z,18.57
2019-02-15T09:37:41.067Z,18.53
2019-02-15T09:40:10.672Z,18.73
2019-02-15T09:42:39.137Z,15.30
2019-02-15T09:45:12.483Z,16.20
2019-02-15T09:47:40.954Z,17.30
2019-02-15T09:50:12.543Z,16.70
2019-02-15T09:52:42.117Z,16.30
2019-02-15T09:55:10.605Z,19.23
2019-02-15T09:57:39.158Z,15.77
2019-02-15T10:00:10.202Z,15.87
2019-02-15T10:02:38.653Z,16.47
2019-02-15T10:05:08.551Z,14.93
2019-02-15T10:07:37.060Z,16.07
2019-02-15T10:10:08.463Z,15.33
2019-02-15T10:12:36.927Z,15.27
2019-02-15T10:15:08.291Z,16.87
2019-02-15T10:17:37.644Z,15.30
2019-02-15T10:20:08.314Z,14.80
2019-02-15T10:22:36.820Z,16.23
2019-02-15T10:25:07.733Z,15.83
2019-02-15T10:27:36.222Z,15.13
2019-02-15T10:30:08.549Z,15.58
2019-02-15T10:32:37.027Z,15.33
2019-02-15T10:35:08.567Z,14.07
2019-02-15T10:37:37.101Z,15.90
2019-02-15T10:40:10.625Z,15.10
2019-02-15T10:42:39.392Z,15.43
2019-02-15T10:45:15.630Z,16.10
2019-02-15T10:47:44.145Z,15.63
2019-02-15T10:50:12.984Z,16.70
2019-02-15T10:52:41.440Z,15.40
2019-02-15T10:55:10.333Z,17.03
2019-02-15T10:57:58.168Z,16.40
2019-02-15T11:00:27.584Z,17.90
2019-02-15T11:02:56.040Z,18.00
2019-02-15T11:05:24.610Z,16.43
2019-02-15T11:07:53.162Z,22.30
2019-02-15T11:10:21.572Z,16.43
2019-02-15T11:12:50.080Z,16.33
2019-02-15T11:15:18.585Z,17.67
2019-02-15T11:17:47.119Z,17.33
2019-02-15T11:20:17.343Z,17.87
2019-02-15T11:22:46.752Z,17.17
2019-02-15T11:25:15.385Z,16.33
2019-02-15T11:27:43.980Z,18.17
2019-02-15T11:30:17.097Z,17.70
2019-02-15T11:32:45.625Z,17.37
2019-02-15T11:35:14.895Z,15.93
2019-02-15T11:37:43.356Z,15.60
2019-02-15T11:40:14.042Z,18.53
2019-02-15T11:42:42.547Z,16.67
2019-02-15T11:45:13.830Z,16.00
2019-02-15T11:47:42.303Z,14.60
2019-02-15T11:50:12.767Z,15.45
2019-02-15T11:52:41.297Z,13.97
2019-02-15T11:55:10.903Z,15.53
2019-02-15T11:57:39.543Z,15.47
2019-02-15T12:00:21.189Z,14.27
2019-02-15T12:02:50.327Z,13.73
2019-02-15T12:05:18.889Z,14.27
2019-02-15T12:07:47.363Z,14.07
2019-02-15T12:10:15.888Z,14.03
2019-02-15T12:12:44.398Z,13.50
2019-02-15T12:15:12.963Z,13.20
2019-02-15T12:17:41.552Z,13.67
2019-02-15T12:20:14.794Z,13.23
2019-02-15T12:22:44.242Z,13.17
2019-02-15T12:25:13.090Z,13.20
2019-02-15T12:27:41.570Z,12.37
2019-02-15T12:30:12.001Z,11.27
2019-02-15T12:32:40.585Z,11.37
2019-02-15T12:35:10.389Z,12.43
2019-02-15T12:37:38.933Z,12.63
2019-02-15T12:40:09.395Z,14.13
2019-02-15T12:42:37.945Z,12.00
2019-02-15T12:45:09.547Z,10.40
2019-02-15T12:47:38.136Z,10.33
2019-02-15T12:50:17.974Z,11.73
2019-02-15T12:52:46.563Z,12.10
2019-02-15T12:55:15.153Z,12.03
2019-02-15T12:57:43.620Z,11.70
2019-02-15T13:00:14.957Z,11.43
2019-02-15T13:02:43.461Z,11.13
2019-02-15T13:05:12.859Z,12.10
2019-02-15T13:07:41.468Z,11.03
2019-02-15T13:10:16.971Z,10.90
2019-02-15T13:12:45.448Z,11.67
2019-02-15T13:15:14.175Z,10.90
2019-02-15T13:17:42.652Z,10.60
2019-02-15T13:20:11.552Z,11.27
2019-02-15T13:22:40.193Z,11.00
2019-02-15T13:25:09.007Z,11.03
2019-02-15T13:27:37.695Z,12.27
2019-02-15T13:30:14.615Z,11.63
2019-02-15T13:32:43.074Z,11.13
2019-02-15T13:35:17.563Z,11.57
2019-02-15T13:37:46.277Z,11.67
2019-02-15T13:40:14.769Z,11.38
2019-02-15T13:42:43.356Z,11.33
2019-02-15T13:45:13.152Z,10.93
2019-02-15T13:47:42.085Z,11.37
2019-02-15T13:50:19.175Z,12.03
2019-02-15T13:52:48.077Z,11.60
2019-02-15T13:55:16.638Z,12.63
2019-02-15T13:57:45.113Z,12.53
2019-02-15T14:00:14.369Z,12.73
2019-02-15T14:02:42.905Z,12.73
2019-02-15T14:05:12.421Z,14.10
2019-02-15T14:07:41.541Z,12.57
2019-02-15T14:10:12.208Z,13.73
2019-02-15T14:12:40.815Z,13.40
2019-02-15T14:15:10.964Z,14.70
2019-02-15T14:17:44.769Z,13.60
2019-02-15T14:20:14.677Z,14.80
2019-02-15T14:22:43.213Z,15.27
2019-02-15T14:25:14.865Z,14.87
2019-02-15T14:27:43.459Z,15.03
2019-02-15T14:30:14.013Z,14.70
2019-02-15T14:32:42.657Z,14.37
2019-02-15T14:35:14.793Z,15.00
2019-02-15T14:37:46.181Z,15.23
2019-02-15T14:40:14.962Z,14.87
2019-02-15T14:42:43.415Z,14.63
2019-02-15T14:45:12.945Z,15.43
2019-02-15T14:47:41.544Z,14.60
2019-02-15T14:50:11.081Z,15.23
2019-02-15T14:52:39.624Z,15.97
2019-02-15T14:55:09.942Z,16.57
2019-02-15T14:57:38.618Z,16.97
2019-02-15T15:00:12.306Z,16.67
2019-02-15T15:02:40.852Z,15.80
2019-02-15T15:05:10.625Z,16.07
2019-02-15T15:07:39.155Z,15.33
2019-02-15T15:10:09.786Z,15.13
2019-02-15T15:12:38.418Z,14.67
2019-02-15T15:15:12.727Z,15.50
2019-02-15T15:17:41.194Z,15.67
2019-02-15T15:20:11.845Z,14.30
2019-02-15T15:22:40.381Z,14.63
2019-02-15T15:25:11.897Z,15.17
2019-02-15T15:27:40.664Z,15.67
2019-02-15T15:30:11.462Z,15.13
2019-02-15T15:32:39.939Z,15.23
2019-02-15T15:35:09.936Z,15.43
2019-02-15T15:37:38.402Z,15.90
2019-02-15T15:40:09.673Z,17.60
2019-02-15T15:42:38.189Z,16.70
2019-02-15T15:45:08.990Z,16.27
2019-02-15T15:47:37.452Z,16.27
2019-02-15T15:50:08.021Z,16.27
2019-02-15T15:52:36.490Z,15.93
2019-02-15T15:55:06.505Z,14.20
2019-02-15T15:57:34.980Z,13.67
2019-02-15T16:00:03.792Z,15.07
2019-02-15T16:02:32.375Z,15.53
2019-02-15T16:05:00.887Z,16.37
2019-02-15T16:07:29.416Z,17.60
2019-02-15T16:09:57.873Z,16.87
2019-02-15T16:12:26.543Z,15.67
2019-02-15T16:14:55.004Z,13.83
2019-02-15T16:17:25.107Z,15.13
2019-02-15T16:19:53.620Z,21.77
2019-02-15T16:22:22.096Z,18.70
2019-02-15T16:24:50.647Z,14.87
2019-02-15T16:27:19.245Z,14.23
2019-02-15T16:29:48.110Z,14.57
2019-02-15T16:32:16.680Z,15.83
2019-02-15T16:34:45.210Z,15.27
2019-02-15T16:37:13.699Z,14.30
2019-02-15T16:39:42.153Z,14.77
2019-02-15T16:42:10.822Z,14.80
2019-02-15T16:44:39.356Z,17.00
2019-02-15T16:47:07.820Z,16.63
2019-02-15T16:49:36.340Z,17.03
2019-02-15T16:52:04.802Z,15.27
2019-02-15T16:54:33.294Z,13.07
2019-02-15T16:57:01.921Z,13.87
2019-02-15T16:59:30.578Z,15.10
2019-02-15T17:01:59.036Z,14.77
2019-02-15T17:04:27.800Z,17.53
2019-02-15T17:06:56.257Z,14.83
2019-02-15T17:09:24.725Z,16.03
2019-02-15T17:11:53.234Z,16.83
2019-02-15T17:14:21.701Z,16.53
2019-02-15T17:16:52.979Z,18.10
2019-02-15T17:19:21.567Z,17.33
2019-02-15T17:21:50.133Z,17.93
2019-02-15T17:24:18.721Z,18.60
2019-02-15T17:26:47.311Z,19.03
2019-02-15T17:29:15.789Z,21.33
2019-02-15T17:31:44.254Z,19.82
2019-02-15T17:34:12.774Z,21.53
2019-02-15T17:36:41.245Z,20.20
2019-02-15T17:39:10.551Z,23.47
2019-02-15T17:41:39.172Z,25.10
2019-02-15T17:44:07.665Z,30.63
2019-02-15T17:46:36.119Z,26.70
2019-02-15T17:49:04.641Z,24.37
2019-02-15T17:51:33.174Z,21.63
2019-02-15T17:54:01.637Z,19.27
2019-02-15T17:56:30.215Z,16.03
2019-02-15T17:58:58.837Z,15.80
2019-02-15T18:01:27.308Z,16.07
2019-02-15T18:03:55.841Z,15.30
2019-02-15T18:06:24.310Z,15.77
2019-02-15T18:08:52.773Z,17.20
2019-02-15T18:11:21.467Z,19.23
2019-02-15T18:13:49.932Z,18.53
2019-02-15T18:16:18.537Z,21.40
2019-02-15T18:18:47.056Z,21.40
2019-02-15T18:21:15.607Z,20.87
2019-02-15T18:23:44.096Z,21.77
2019-02-15T18:26:12.637Z,23.57
2019-02-15T18:28:41.186Z,25.10
2019-02-15T18:31:09.650Z,26.20
2019-02-15T18:33:38.228Z,25.33
2019-02-15T18:36:06.693Z,23.60
2019-02-15T18:38:35.165Z,22.53
2019-02-15T18:41:13.138Z,21.17
2019-02-15T18:43:34.109Z,23.10
2019-02-15T18:46:02.570Z,23.87
2019-02-15T18:48:31.094Z,22.93
2019-02-15T18:50:59.567Z,25.93
2019-02-15T18:53:28.025Z,27.00
2019-02-15T18:55:56.551Z,42.13
2019-02-15T18:58:25.039Z,31.40
2019-02-15T19:00:53.516Z,27.00
2019-02-15T19:03:22.068Z,25.57
2019-02-15T19:05:50.532Z,25.33
2019-02-15T19:08:18.992Z,24.53
2019-02-15T19:10:47.666Z,23.20
2019-02-15T19:13:16.136Z,23.03
2019-02-15T19:15:44.676Z,23.00
2019-02-15T19:18:13.315Z,20.93
2019-02-15T19:20:41.860Z,21.87
2019-02-15T19:23:10.414Z,22.73
2019-02-15T19:25:38.943Z,22.23
2019-02-15T19:28:07.403Z,21.20
2019-02-15T19:30:37.208Z,25.07
2019-02-15T19:33:05.811Z,22.50
2019-02-15T19:35:34.268Z,23.60
2019-02-15T19:38:02.747Z,23.67
2019-02-15T19:40:31.409Z,21.03
2019-02-15T19:43:03.328Z,18.80
2019-02-15T19:45:32.122Z,19.23
2019-02-15T19:48:00.824Z,19.40
2019-02-15T19:50:29.278Z,19.03
2019-02-15T19:52:57.746Z,22.23
2019-02-15T19:55:26.299Z,23.87
2019-02-15T19:57:54.803Z,24.03
2019-02-15T20:00:23.242Z,25.07
2019-02-15T20:02:52.685Z,25.87
2019-02-15T20:05:21.214Z,25.30
2019-02-15T20:07:50.254Z,26.37
2019-02-15T20:10:22.246Z,33.10
2019-02-15T20:12:50.699Z,27.37
2019-02-15T20:15:19.317Z,27.50
2019-02-15T20:17:47.843Z,27.00
2019-02-15T20:20:17.827Z,26.07
2019-02-15T20:22:46.351Z,24.27
2019-02-15T20:25:14.998Z,24.30
2019-02-15T20:27:43.540Z,24.13
2019-02-15T20:30:15.048Z,22.97
2019-02-15T20:32:43.576Z,21.97
2019-02-15T20:35:13.546Z,21.50
2019-02-15T20:37:42.370Z,22.20
2019-02-15T20:40:12.876Z,23.83
2019-02-15T20:42:41.403Z,24.63
2019-02-15T20:45:12.772Z,25.87
2019-02-15T20:47:41.293Z,27.63
2019-02-15T20:50:11.495Z,26.87
2019-02-15T20:52:39.958Z,28.43
2019-02-15T20:55:11.120Z,28.87
2019-02-15T20:57:39.652Z,28.20
2019-02-15T21:00:11.204Z,27.90
2019-02-15T21:02:39.713Z,28.50
2019-02-15T21:05:09.928Z,28.43
2019-02-15T21:07:38.562Z,28.93
2019-02-15T21:10:10.219Z,28.63
2019-02-15T21:12:39.640Z,30.20
2019-02-15T21:15:10.933Z,30.07
2019-02-15T21:17:39.442Z,29.37
2019-02-15T21:20:12.777Z,30.10
2019-02-15T21:22:41.429Z,30.37
2019-02-15T21:25:17.129Z,31.03
2019-02-15T21:27:45.681Z,29.63
2019-02-15T21:30:19.013Z,25.90
2019-02-15T21:32:47.526Z,29.00
2019-02-15T21:35:17.001Z,27.27
2019-02-15T21:37:46.532Z,27.83
2019-02-15T21:40:16.901Z,29.30
2019-02-15T21:42:45.430Z,28.00
2019-02-15T21:45:14.028Z,30.07
2019-02-15T21:47:42.710Z,31.57
2019-02-15T21:50:17.317Z,30.47
2019-02-15T21:52:44.092Z,30.20
2019-02-15T21:55:16.152Z,31.50
2019-02-15T21:57:44.683Z,36.60
2019-02-15T22:00:21.968Z,32.40
2019-02-15T22:02:50.446Z,30.63
2019-02-15T22:05:18.971Z,33.00
2019-02-15T22:07:47.594Z,38.43
2019-02-15T22:10:16.075Z,40.10
2019-02-15T22:12:44.640Z,41.87
2019-02-15T22:15:17.489Z,44.13
2019-02-15T22:17:45.989Z,53.67
2019-02-15T22:20:15.681Z,53.63
2019-02-15T22:22:44.322Z,46.13
2019-02-15T22:25:13.047Z,47.57
2019-02-15T22:27:41.607Z,48.30
2019-02-15T22:30:14.985Z,40.23
2019-02-15T22:32:43.545Z,43.83
2019-02-15T22:35:12.132Z,44.87
2019-02-15T22:37:40.725Z,38.47
2019-02-15T22:40:24.143Z,38.63
2019-02-15T22:42:52.698Z,41.23
2019-02-15T22:45:21.173Z,37.47
2019-02-15T22:47:49.730Z,41.60
2019-02-15T22:50:18.350Z,39.90
2019-02-15T22:52:46.799Z,45.30
2019-02-15T22:55:15.273Z,45.20
2019-02-15T22:57:43.818Z,48.60
2019-02-15T23:00:50.275Z,49.10
2019-02-15T23:03:21.213Z,45.90
2019-02-15T23:05:49.750Z,44.80
2019-02-15T23:08:18.408Z,43.97
2019-02-15T23:10:46.905Z,43.00
2019-02-15T23:13:15.475Z,40.90
2019-02-15T23:15:44.100Z,41.80
2019-02-15T23:18:12.761Z,42.30
2019-02-15T23:20:45.196Z,41.23
2019-02-15T23:23:11.500Z,42.30
2019-02-15T23:25:41.062Z,42.07
2019-02-15T23:28:09.587Z,40.10
2019-02-15T23:30:38.094Z,33.70
2019-02-15T23:33:07.268Z,33.67
2019-02-15T23:35:36.382Z,37.27
2019-02-15T23:38:04.878Z,38.73
2019-02-15T23:40:34.082Z,57.53
2019-02-15T23:43:02.625Z,45.73
2019-02-15T23:45:31.835Z,46.83
2019-02-15T23:48:01.008Z,46.43
2019-02-15T23:50:29.446Z,41.43
2019-02-15T23:52:58.660Z,41.30
2019-02-15T23:55:27.141Z,39.13
2019-02-15T23:57:56.316Z,37.10
